createdAt,value
2017-09-05T00:00:40.800Z,52.12
2017-09-05T00:03:08.367Z,52.72
2017-09-05T00:05:35.922Z,52.75
2017-09-05T00:08:03.540Z,52.60
2017-09-05T00:10:32.828Z,52.90
2017-09-05T00:13:03.105Z,55.04
2017-09-05T00:15:32.600Z,56.45
2017-09-05T00:18:03.130Z,54.57
2017-09-05T00:20:41.579Z,54.14
2017-09-05T00:23:09.525Z,54.39
2017-09-05T00:25:37.413Z,54.44
2017-09-05T00:28:04.940Z,53.82
2017-09-05T00:30:32.520Z,53.51
2017-09-05T00:33:00.084Z,54.10
2017-09-05T00:35:27.651Z,53.35
2017-09-05T00:37:55.237Z,53.29
2017-09-05T00:40:22.832Z,53.90
2017-09-05T00:42:50.593Z,54.38
2017-09-05T00:45:18.283Z,54.01
2017-09-05T00:47:46.025Z,54.06
2017-09-05T00:50:13.624Z,54.19
2017-09-05T00:52:41.224Z,53.90
2017-09-05T00:55:08.780Z,54.02
2017-09-05T00:57:36.363Z,54.28
2017-09-05T01:00:06.645Z,54.18
2017-09-05T01:02:34.449Z,53.74
2017-09-05T01:05:01.985Z,53.57
2017-09-05T01:07:29.637Z,53.76
2017-09-05T01:09:57.213Z,53.79
2017-09-05T01:12:27.084Z,53.95
2017-09-05T01:14:54.682Z,53.72
2017-09-05T01:17:22.476Z,53.83
2017-09-05T01:19:50.057Z,54.00
2017-09-05T01:22:17.699Z,54.45
2017-09-05T01:24:45.319Z,54.39
2017-09-05T01:27:13.672Z,54.66
2017-09-05T01:29:41.364Z,54.70
2017-09-05T01:32:08.979Z,54.46
2017-09-05T01:34:36.519Z,55.10
2017-09-05T01:37:04.104Z,54.78
2017-09-05T01:39:31.680Z,54.96
2017-09-05T01:41:59.262Z,54.69
2017-09-05T01:44:26.793Z,55.04
2017-09-05T01:46:55.691Z,55.79
2017-09-05T01:49:23.245Z,55.63
2017-09-05T01:51:50.753Z,55.89
2017-09-05T01:54:18.351Z,55.94
2017-09-05T01:56:45.900Z,55.94
2017-09-05T01:59:13.435Z,56.23
2017-09-05T02:01:41.028Z,56.26
2017-09-05T02:04:08.631Z,56.56
2017-09-05T02:06:36.161Z,56.29
2017-09-05T02:09:03.811Z,56.64
2017-09-05T02:11:31.406Z,56.88
2017-09-05T02:13:59.022Z,56.79
2017-09-05T02:16:26.585Z,56.79
2017-09-05T02:18:54.119Z,56.70
2017-09-05T02:21:21.897Z,56.79
2017-09-05T02:23:49.494Z,56.78
2017-09-05T02:26:17.109Z,56.60
2017-09-05T02:28:44.711Z,56.38
2017-09-05T02:31:12.298Z,56.42
2017-09-05T02:33:39.898Z,57.23
2017-09-05T02:36:07.442Z,57.18
2017-09-05T02:38:35.042Z,57.01
2017-09-05T02:41:02.556Z,56.85
2017-09-05T02:43:30.063Z,56.58
2017-09-05T02:45:57.665Z,56.34
2017-09-05T02:48:25.204Z,56.48
2017-09-05T02:50:52.773Z,56.98
2017-09-05T02:53:20.357Z,56.66
2017-09-05T02:55:47.942Z,56.38
2017-09-05T02:58:15.469Z,56.48
2017-09-05T03:00:43.180Z,56.53
2017-09-05T03:03:10.706Z,56.91
2017-09-05T03:05:38.267Z,56.84
2017-09-05T03:08:05.865Z,56.90
2017-09-05T03:10:33.454Z,57.36
2017-09-05T03:13:00.978Z,57.39
2017-09-05T03:15:28.655Z,57.10
2017-09-05T03:17:56.304Z,56.53
2017-09-05T03:20:23.865Z,56.32
2017-09-05T03:22:51.460Z,56.53
2017-09-05T03:25:19.080Z,57.18
2017-09-05T03:27:46.679Z,57.94
2017-09-05T03:30:14.378Z,57.33
2017-09-05T03:32:42.249Z,57.30
2017-09-05T03:35:09.836Z,57.37
2017-09-05T03:37:37.417Z,57.72
2017-09-05T03:40:04.972Z,57.70
2017-09-05T03:42:32.538Z,57.71
2017-09-05T03:45:00.115Z,57.62
2017-09-05T03:47:27.687Z,57.68
2017-09-05T03:49:55.247Z,57.52
2017-09-05T03:52:22.847Z,57.66
2017-09-05T03:54:50.381Z,57.73
2017-09-05T03:57:17.949Z,57.35
2017-09-05T03:59:45.539Z,57.30
2017-09-05T04:02:13.336Z,57.09
2017-09-05T04:04:40.873Z,57.69
2017-09-05T04:07:08.408Z,57.77
2017-09-05T04:09:35.973Z,58.08
2017-09-05T04:12:03.579Z,58.02
2017-09-05T04:14:31.151Z,57.70
2017-09-05T04:16:58.828Z,57.72
2017-09-05T04:19:26.383Z,57.96
2017-09-05T04:21:54.265Z,57.70
2017-09-05T04:24:21.830Z,57.85
2017-09-05T04:26:49.700Z,57.81
2017-09-05T04:29:17.464Z,57.59
2017-09-05T04:31:45.003Z,55.30
2017-09-05T04:34:12.557Z,52.93
2017-09-05T04:36:40.117Z,50.86
2017-09-05T04:39:07.685Z,50.14
2017-09-05T04:41:35.199Z,50.79
2017-09-05T04:44:02.723Z,51.00
2017-09-05T04:46:30.253Z,49.00
2017-09-05T04:48:57.790Z,48.46
2017-09-05T04:51:25.349Z,49.07
2017-09-05T04:53:52.924Z,47.86
2017-09-05T04:56:20.449Z,48.18
2017-09-05T04:58:47.979Z,50.28
2017-09-05T05:01:15.593Z,51.59
2017-09-05T05:03:43.101Z,50.18
2017-09-05T05:06:11.260Z,49.89
2017-09-05T05:08:38.873Z,50.28
2017-09-05T05:11:06.479Z,51.01
2017-09-05T05:13:34.011Z,50.66
2017-09-05T05:16:01.612Z,51.91
2017-09-05T05:18:29.125Z,51.86
2017-09-05T05:20:56.651Z,48.76
2017-09-05T05:23:24.213Z,49.18
2017-09-05T05:25:51.713Z,50.32
2017-09-05T05:28:19.238Z,51.38
2017-09-05T05:30:46.899Z,53.28
2017-09-05T05:33:14.527Z,53.01
2017-09-05T05:35:42.310Z,53.85
2017-09-05T05:38:09.869Z,53.48
2017-09-05T05:40:37.456Z,53.39
2017-09-05T05:43:05.052Z,52.67
2017-09-05T05:45:32.633Z,51.67
2017-09-05T05:48:00.147Z,52.36
2017-09-05T05:50:27.949Z,51.67
2017-09-05T05:52:55.509Z,52.18
2017-09-05T05:55:23.053Z,51.17
2017-09-05T05:57:50.632Z,49.23
2017-09-05T06:00:18.304Z,47.48
2017-09-05T06:02:46.056Z,45.66
2017-09-05T06:05:13.584Z,46.97
2017-09-05T06:07:41.120Z,48.19
2017-09-05T06:10:08.703Z,48.68
2017-09-05T06:12:36.229Z,49.24
2017-09-05T06:15:03.865Z,49.34
2017-09-05T06:17:31.395Z,49.92
2017-09-05T06:19:58.923Z,50.02
2017-09-05T06:22:26.522Z,50.45
2017-09-05T06:24:54.074Z,50.55
2017-09-05T06:27:21.640Z,50.03
2017-09-05T06:29:49.316Z,50.28
2017-09-05T06:32:16.877Z,49.58
2017-09-05T06:34:44.417Z,48.86
2017-09-05T06:37:12.008Z,47.88
2017-09-05T06:39:39.601Z,47.88
2017-09-05T06:42:07.183Z,47.55
2017-09-05T06:44:34.853Z,48.64
2017-09-05T06:47:02.428Z,48.75
2017-09-05T06:49:30.001Z,48.66
2017-09-05T06:51:57.536Z,47.86
2017-09-05T06:54:25.336Z,46.65
2017-09-05T06:56:52.905Z,44.99
2017-09-05T06:59:20.475Z,46.05
2017-09-05T07:01:48.091Z,45.31
2017-09-05T07:04:15.633Z,46.15
2017-09-05T07:06:43.165Z,45.76
2017-09-05T07:09:11.252Z,45.25
2017-09-05T07:11:38.827Z,45.57
2017-09-05T07:14:06.439Z,45.46
2017-09-05T07:16:34.021Z,45.75
2017-09-05T07:19:01.569Z,45.56
2017-09-05T07:21:29.112Z,45.72
2017-09-05T07:23:56.693Z,45.05
2017-09-05T07:26:24.616Z,43.77
2017-09-05T07:28:52.192Z,43.96
2017-09-05T07:31:19.762Z,44.95
2017-09-05T07:33:47.289Z,43.11
2017-09-05T07:36:14.869Z,43.46
2017-09-05T07:38:42.456Z,44.00
2017-09-05T07:41:10.010Z,42.96
2017-09-05T07:43:37.580Z,44.32
2017-09-05T07:46:05.165Z,44.38
2017-09-05T07:48:32.763Z,44.52
2017-09-05T07:51:00.603Z,45.19
2017-09-05T07:53:28.192Z,44.78
2017-09-05T07:55:55.721Z,43.67
2017-09-05T07:58:23.268Z,43.97
2017-09-05T08:00:50.853Z,42.63
2017-09-05T08:03:18.594Z,42.09
2017-09-05T08:05:46.185Z,41.00
2017-09-05T08:08:13.814Z,40.84
2017-09-05T08:10:41.345Z,39.96
2017-09-05T08:13:08.891Z,40.81
2017-09-05T08:15:36.470Z,40.11
2017-09-05T08:18:04.250Z,40.17
2017-09-05T08:20:31.814Z,38.39
2017-09-05T08:22:59.404Z,38.20
2017-09-05T08:25:26.993Z,38.59
2017-09-05T08:27:54.580Z,39.50
2017-09-05T08:30:22.253Z,38.63
2017-09-05T08:32:49.836Z,39.50
2017-09-05T08:35:17.427Z,39.60
2017-09-05T08:37:45.045Z,40.36
2017-09-05T08:40:12.575Z,39.88
2017-09-05T08:45:12.952Z,38.62
2017-09-05T08:47:40.484Z,38.99
2017-09-05T08:50:07.997Z,38.27
2017-09-05T08:52:35.590Z,38.45
2017-09-05T08:55:03.124Z,38.86
2017-09-05T08:57:30.682Z,39.76
2017-09-05T08:59:58.883Z,38.25
2017-09-05T09:02:26.467Z,38.00
2017-09-05T09:04:54.052Z,38.40
2017-09-05T09:07:21.641Z,39.40
2017-09-05T09:12:27.994Z,38.54
2017-09-05T09:14:55.557Z,38.37
2017-09-05T09:17:23.214Z,37.86
2017-09-05T09:19:50.804Z,38.10
2017-09-05T09:22:18.418Z,38.67
2017-09-05T09:24:46.013Z,39.03
2017-09-05T09:27:13.573Z,38.55
2017-09-05T09:29:41.118Z,38.41
2017-09-05T09:32:08.672Z,38.34
2017-09-05T09:34:36.221Z,39.12
2017-09-05T09:37:03.789Z,39.38
2017-09-05T09:39:31.363Z,39.85
2017-09-05T09:41:58.897Z,39.77
2017-09-05T09:44:26.413Z,40.10
2017-09-05T09:46:53.981Z,39.83
2017-09-05T09:49:21.616Z,40.75
2017-09-05T09:51:49.223Z,41.00
2017-09-05T09:54:16.784Z,41.69
2017-09-05T09:56:44.344Z,41.88
2017-09-05T09:59:11.929Z,42.31
2017-09-05T10:01:39.503Z,42.81
2017-09-05T10:04:07.277Z,42.26
2017-09-05T10:06:34.806Z,41.55
2017-09-05T10:09:02.413Z,41.49
2017-09-05T10:11:30.005Z,41.40
2017-09-05T10:13:57.579Z,41.69
2017-09-05T10:16:25.359Z,41.67
2017-09-05T10:18:52.951Z,41.28
2017-09-05T10:21:20.722Z,40.75
2017-09-05T10:23:48.299Z,40.05
2017-09-05T10:26:15.876Z,39.96
2017-09-05T10:28:43.422Z,40.58
2017-09-05T10:31:10.998Z,39.85
2017-09-05T10:33:38.537Z,39.55
2017-09-05T10:36:06.111Z,39.52
2017-09-05T10:38:33.666Z,39.55
2017-09-05T10:41:01.253Z,39.28
2017-09-05T10:43:29.544Z,39.64
2017-09-05T10:45:57.127Z,39.02
2017-09-05T10:48:24.721Z,38.66
2017-09-05T10:50:52.465Z,38.49
2017-09-05T10:53:20.814Z,37.62
2017-09-05T10:55:48.384Z,37.38
2017-09-05T10:58:15.939Z,37.19
2017-09-05T11:00:43.517Z,36.65
2017-09-05T11:03:11.407Z,35.65
2017-09-05T11:05:38.988Z,35.03
2017-09-05T11:08:06.559Z,35.49
2017-09-05T11:10:34.093Z,35.22
2017-09-05T11:13:01.645Z,35.17
2017-09-05T11:15:29.262Z,35.10
2017-09-05T11:17:56.848Z,35.39
2017-09-05T11:20:24.405Z,35.35
2017-09-05T11:22:51.997Z,35.08
2017-09-05T11:25:20.167Z,35.54
2017-09-05T11:27:47.948Z,35.07
2017-09-05T11:30:15.610Z,35.46
2017-09-05T11:32:43.206Z,35.61
2017-09-05T11:35:10.793Z,35.34
2017-09-05T11:37:38.596Z,35.54
2017-09-05T11:40:06.209Z,35.43
2017-09-05T11:42:33.843Z,35.08
2017-09-05T11:45:01.474Z,34.83
2017-09-05T11:47:29.252Z,33.97
2017-09-05T11:49:56.925Z,33.99
2017-09-05T11:52:24.553Z,31.08
2017-09-05T11:54:52.127Z,30.58
2017-09-05T11:57:19.990Z,29.26
2017-09-05T11:59:47.597Z,27.99
2017-09-05T12:02:15.189Z,28.26
2017-09-05T12:04:42.946Z,28.19
2017-09-05T12:07:10.508Z,27.18
2017-09-05T12:09:38.092Z,26.94
2017-09-05T12:12:05.836Z,27.19
2017-09-05T12:14:33.594Z,26.16
2017-09-05T12:17:01.203Z,25.64
2017-09-05T12:19:28.737Z,25.06
2017-09-05T12:21:56.280Z,24.40
2017-09-05T12:24:23.916Z,24.59
2017-09-05T12:26:51.449Z,24.96
2017-09-05T12:29:19.351Z,23.89
2017-09-05T12:31:46.968Z,23.19
2017-09-05T12:34:14.538Z,23.76
2017-09-05T12:36:42.115Z,23.31
2017-09-05T12:39:09.705Z,23.20
2017-09-05T12:41:37.284Z,24.11
2017-09-05T12:44:04.855Z,24.09
2017-09-05T12:46:32.485Z,23.70
2017-09-05T12:49:00.069Z,23.35
2017-09-05T12:51:27.622Z,22.29
2017-09-05T12:53:55.201Z,23.22
2017-09-05T12:56:22.743Z,23.77
2017-09-05T12:58:50.303Z,24.24
2017-09-05T13:01:18.055Z,25.18
2017-09-05T13:03:45.829Z,25.25
2017-09-05T13:06:13.372Z,25.07
2017-09-05T13:08:41.891Z,25.15
2017-09-05T13:11:09.461Z,25.44
2017-09-05T13:13:37.060Z,25.36
2017-09-05T13:16:04.671Z,25.17
2017-09-05T13:18:32.446Z,25.42
2017-09-05T13:21:00.050Z,25.99
2017-09-05T13:23:27.644Z,25.85
2017-09-05T13:25:55.432Z,26.03
2017-09-05T13:28:23.946Z,26.05
2017-09-05T13:30:53.017Z,26.13
2017-09-05T13:33:21.784Z,26.03
2017-09-05T13:35:50.036Z,26.24
2017-09-05T13:38:17.648Z,26.26
2017-09-05T13:40:45.324Z,25.52
2017-09-05T13:43:12.841Z,25.26
2017-09-05T13:45:40.405Z,24.67
2017-09-05T13:48:07.982Z,25.36
2017-09-05T13:50:35.576Z,25.38
2017-09-05T13:53:03.156Z,25.66
2017-09-05T13:55:30.685Z,25.98
2017-09-05T13:58:07.232Z,26.54
2017-09-05T14:00:35.628Z,26.85
2017-09-05T14:03:04.428Z,26.40
2017-09-05T14:05:32.308Z,27.15
2017-09-05T14:08:00.756Z,26.88
2017-09-05T14:10:28.347Z,27.11
2017-09-05T14:12:58.335Z,27.09
2017-09-05T14:15:25.939Z,27.47
2017-09-05T14:17:54.489Z,27.36
2017-09-05T14:20:23.126Z,27.37
2017-09-05T14:22:50.747Z,27.72
2017-09-05T14:25:18.281Z,29.36
2017-09-05T14:27:46.087Z,30.07
2017-09-05T14:30:13.733Z,31.12
2017-09-05T14:32:41.367Z,31.30
2017-09-05T14:35:08.927Z,31.46
2017-09-05T14:37:36.539Z,30.97
2017-09-05T14:40:04.309Z,31.24
2017-09-05T14:42:31.868Z,31.32
2017-09-05T14:44:59.471Z,31.29
2017-09-05T14:47:27.001Z,31.27
2017-09-05T14:49:54.517Z,30.82
2017-09-05T14:52:22.088Z,30.82
2017-09-05T14:54:49.616Z,30.75
2017-09-05T14:57:18.293Z,30.89
2017-09-05T14:59:45.864Z,31.23
2017-09-05T15:02:13.442Z,31.03
2017-09-05T15:04:41.069Z,30.76
2017-09-05T15:07:08.626Z,32.34
2017-09-05T15:09:36.209Z,31.98
2017-09-05T15:12:04.625Z,34.06
2017-09-05T15:14:32.201Z,31.90
2017-09-05T15:17:00.748Z,30.30
2017-09-05T15:19:28.359Z,30.52
2017-09-05T15:21:55.929Z,31.11
2017-09-05T15:24:23.637Z,32.05
2017-09-05T15:26:51.237Z,32.48
2017-09-05T15:29:18.787Z,33.07
2017-09-05T15:31:46.373Z,33.27
2017-09-05T15:34:13.950Z,33.81
2017-09-05T15:36:41.536Z,34.29
2017-09-05T15:39:09.209Z,34.08
2017-09-05T15:41:36.772Z,34.26
2017-09-05T15:44:04.312Z,33.93
2017-09-05T15:46:31.913Z,34.15
2017-09-05T15:48:59.488Z,33.89
2017-09-05T15:51:27.088Z,34.12
2017-09-05T15:53:55.565Z,34.46
2017-09-05T15:56:23.189Z,34.81
2017-09-05T15:58:50.952Z,34.93
2017-09-05T16:01:18.583Z,35.04
2017-09-05T16:03:46.168Z,34.90
2017-09-05T16:06:13.963Z,34.74
2017-09-05T16:08:42.519Z,34.50
2017-09-05T16:11:10.075Z,34.34
2017-09-05T16:13:37.648Z,34.36
2017-09-05T16:16:05.301Z,34.47
2017-09-05T16:18:32.884Z,33.51
2017-09-05T16:21:00.489Z,33.99
2017-09-05T16:23:28.095Z,34.01
2017-09-05T16:25:56.759Z,33.83
2017-09-05T16:28:24.315Z,33.74
2017-09-05T16:30:52.063Z,33.53
2017-09-05T16:33:19.619Z,33.36
2017-09-05T16:35:47.188Z,33.52
2017-09-05T16:38:14.772Z,33.80
2017-09-05T16:40:42.323Z,34.17
2017-09-05T16:43:09.888Z,34.56
2017-09-05T16:45:37.669Z,34.83
2017-09-05T16:48:05.951Z,34.87
2017-09-05T16:50:33.497Z,35.24
2017-09-05T16:53:01.173Z,35.17
2017-09-05T16:55:28.736Z,35.44
2017-09-05T16:57:56.305Z,35.64
2017-09-05T17:00:23.974Z,35.95
2017-09-05T17:02:51.497Z,36.09
2017-09-05T17:05:19.064Z,36.09
2017-09-05T17:07:46.652Z,36.28
2017-09-05T17:10:14.219Z,36.18
2017-09-05T17:12:41.776Z,36.40
2017-09-05T17:15:09.437Z,36.51
2017-09-05T17:17:37.041Z,36.90
2017-09-05T17:20:04.616Z,37.26
2017-09-05T17:22:33.137Z,37.77
2017-09-05T17:25:01.753Z,38.01
2017-09-05T17:27:29.319Z,38.34
2017-09-05T17:29:56.985Z,38.36
2017-09-05T17:32:25.931Z,38.16
2017-09-05T17:34:53.478Z,38.29
2017-09-05T17:37:21.068Z,38.67
2017-09-05T17:39:48.675Z,38.79
2017-09-05T17:42:17.188Z,38.64
2017-09-05T17:44:45.471Z,38.86
2017-09-05T17:47:13.050Z,38.59
2017-09-05T17:49:40.611Z,39.04
2017-09-05T17:52:08.214Z,39.06
2017-09-05T17:54:35.804Z,38.83
2017-09-05T17:57:03.614Z,38.84
2017-09-05T17:59:31.206Z,39.01
2017-09-05T18:01:59.137Z,38.96
2017-09-05T18:04:26.681Z,38.85
2017-09-05T18:06:54.217Z,39.24
2017-09-05T18:09:21.843Z,39.28
2017-09-05T18:11:49.414Z,39.19
2017-09-05T18:14:17.009Z,39.43
2017-09-05T18:16:44.788Z,39.47
2017-09-05T18:19:12.522Z,39.70
2017-09-05T18:21:40.107Z,39.71
2017-09-05T18:24:07.727Z,39.99
2017-09-05T18:26:35.862Z,40.01
2017-09-05T18:29:03.725Z,40.17
2017-09-05T18:31:31.807Z,39.80
2017-09-05T18:33:59.406Z,39.61
2017-09-05T18:36:27.952Z,40.14
2017-09-05T18:38:55.555Z,40.06
2017-09-05T18:41:23.245Z,39.65
2017-09-05T18:43:51.299Z,39.76
2017-09-05T18:46:19.867Z,40.73
2017-09-05T18:48:48.041Z,40.86
2017-09-05T18:51:16.072Z,41.02
2017-09-05T18:53:43.708Z,40.87
2017-09-05T18:56:11.448Z,40.85
2017-09-05T18:58:39.223Z,41.29
2017-09-05T19:01:08.078Z,41.54
2017-09-05T19:03:35.977Z,41.27
2017-09-05T19:06:03.506Z,40.85
2017-09-05T19:08:31.935Z,40.91
2017-09-05T19:10:59.606Z,40.98
2017-09-05T19:13:28.186Z,41.00
2017-09-05T19:15:55.795Z,40.91
2017-09-05T19:18:23.350Z,41.48
2017-09-05T19:20:51.142Z,44.06
2017-09-05T19:23:18.741Z,41.53
2017-09-05T19:25:46.608Z,41.29
2017-09-05T19:28:14.156Z,42.64
2017-09-05T19:30:41.756Z,40.70
2017-09-05T19:33:09.620Z,41.76
2017-09-05T19:35:37.208Z,40.85
2017-09-05T19:38:04.869Z,40.90
2017-09-05T19:40:32.429Z,40.17
2017-09-05T19:43:00.032Z,40.14
2017-09-05T19:45:27.643Z,40.39
2017-09-05T19:47:55.196Z,40.66
2017-09-05T19:50:22.759Z,40.74
2017-09-05T19:52:50.407Z,40.98
2017-09-05T19:55:18.704Z,41.05
2017-09-05T19:57:46.344Z,40.78
2017-09-05T20:00:13.948Z,40.86
2017-09-05T20:02:42.253Z,40.95
2017-09-05T20:05:09.918Z,41.09
2017-09-05T20:07:40.217Z,41.02
2017-09-05T20:10:07.985Z,41.45
2017-09-05T20:12:35.581Z,41.50
2017-09-05T20:15:03.164Z,41.62
2017-09-05T20:17:30.966Z,42.76
2017-09-05T20:19:58.647Z,42.78
2017-09-05T20:22:26.228Z,42.71
2017-09-05T20:24:53.973Z,42.63
2017-09-05T20:27:21.513Z,42.67
2017-09-05T20:29:49.114Z,42.54
2017-09-05T20:32:17.480Z,42.83
2017-09-05T20:34:45.256Z,42.72
2017-09-05T20:37:12.837Z,43.77
2017-09-05T20:39:40.431Z,44.55
2017-09-05T20:42:08.005Z,44.52
2017-09-05T20:44:35.741Z,44.65
2017-09-05T20:47:03.343Z,44.89
2017-09-05T20:49:30.873Z,44.29
2017-09-05T20:51:58.418Z,44.79
2017-09-05T20:54:26.011Z,45.50
2017-09-05T20:56:53.779Z,45.45
2017-09-05T20:59:21.661Z,45.95
2017-09-05T21:01:49.339Z,45.90
2017-09-05T21:04:17.837Z,46.49
2017-09-05T21:06:45.600Z,46.77
2017-09-05T21:09:13.163Z,46.38
2017-09-05T21:11:40.753Z,46.18
2017-09-05T21:14:22.266Z,46.54
2017-09-05T21:19:41.136Z,46.91
2017-09-05T21:22:19.034Z,47.46
2017-09-05T21:24:46.628Z,47.43
2017-09-05T21:27:17.328Z,47.89
2017-09-05T21:29:44.952Z,47.42
2017-09-05T21:32:17.316Z,47.16
2017-09-05T21:34:44.879Z,47.15
2017-09-05T21:37:12.704Z,47.05
2017-09-05T21:39:40.379Z,46.89
2017-09-05T21:42:07.987Z,47.07
2017-09-05T21:44:35.594Z,46.67
2017-09-05T21:47:03.169Z,45.98
2017-09-05T21:49:30.708Z,45.36
2017-09-05T21:51:58.577Z,45.18
2017-09-05T21:54:26.165Z,45.50
2017-09-05T21:56:53.711Z,44.87
2017-09-05T21:59:21.259Z,44.87
2017-09-05T22:01:48.812Z,45.01
2017-09-05T22:04:16.379Z,44.88
2017-09-05T22:06:43.912Z,44.87
2017-09-05T22:09:11.495Z,44.83
2017-09-05T22:11:39.037Z,44.54
2017-09-05T22:14:12.276Z,44.60
2017-09-05T22:16:41.602Z,44.63
2017-09-05T22:19:14.662Z,45.37
2017-09-05T22:21:42.288Z,45.85
2017-09-05T22:24:09.856Z,46.06
2017-09-05T22:26:43.051Z,46.09
2017-09-05T22:29:11.320Z,46.06
2017-09-05T22:31:38.909Z,45.55
2017-09-05T22:34:06.529Z,45.76
2017-09-05T22:36:34.092Z,45.86
2017-09-05T22:39:01.662Z,45.81
2017-09-05T22:41:29.312Z,46.01
2017-09-05T22:43:56.901Z,45.84
2017-09-05T22:46:24.533Z,46.33
2017-09-05T22:48:52.265Z,46.73
2017-09-05T22:51:19.845Z,47.42
2017-09-05T22:53:47.408Z,47.47
2017-09-05T22:56:14.940Z,47.01
2017-09-05T22:58:42.519Z,47.05
2017-09-05T23:01:10.127Z,47.56
2017-09-05T23:03:37.689Z,48.95
2017-09-05T23:06:05.259Z,48.98
2017-09-05T23:08:32.839Z,47.93
2017-09-05T23:11:00.455Z,47.88
2017-09-05T23:13:28.073Z,48.49
2017-09-05T23:15:55.645Z,47.50
2017-09-05T23:18:23.221Z,47.77
2017-09-05T23:20:50.957Z,47.77
2017-09-05T23:23:18.564Z,48.14
2017-09-05T23:25:46.820Z,48.29
2017-09-05T23:28:14.409Z,47.85
2017-09-05T23:30:41.992Z,47.46
2017-09-05T23:33:09.561Z,48.13
2017-09-05T23:35:37.398Z,47.82
2017-09-05T23:38:05.025Z,47.50
2017-09-05T23:40:32.529Z,47.30
2017-09-05T23:43:00.070Z,47.04
2017-09-05T23:45:27.655Z,46.67
2017-09-05T23:47:55.206Z,47.06
2017-09-05T23:50:22.820Z,47.06
2017-09-05T23:52:50.416Z,46.75
2017-09-05T23:55:18.170Z,47.13
2017-09-05T23:57:46.036Z,48.43
